Time;durP1;ratioP1;P1;durP2;ratioP2;P2;SDS_P1;SDS_P2;PMS_P1;PMS_P2;Temp;Humidity;BMP_temperature;BMP_pressure;BME280_temperature;BME280_humidity;BME280_pressure;Samples;Min_cycle;Max_cycle;Signal;HPM_P1;HPM_P2
2022/08/02 00:01:13;;;;;;;;;;;;;;;16.73;83.46;100768.06;5004244;28;1447;-85
2022/08/02 00:03:38;;;;;;;;;;;;;;;16.77;82.62;100766.28;4999548;28;1653;-85
2022/08/02 00:06:03;;;;;;;;;;;;;;;16.62;82.75;100764.72;4996973;28;1653;-85
2022/08/02 00:08:28;;;;;;;;;;;;;;;16.53;82.70;100761.88;5005467;28;1130;-84
2022/08/02 00:10:53;;;;;;;;;;;;;;;16.50;83.71;100756.16;5006630;28;1353;-85
2022/08/02 00:13:19;;;;;;;;;;;;;;;16.68;83.04;100755.16;5006172;28;1639;-85
2022/08/02 00:15:44;;;;;;;;;;;;;;;16.59;82.90;100755.06;5002644;28;1536;-85
2022/08/02 00:18:09;;;;;;;;;;;;;;;16.70;83.03;100755.66;5005806;28;1871;-85
2022/08/02 00:20:34;;;;;;;;;;;;;;;16.68;82.67;100751.56;5006503;28;1379;-85
2022/08/02 00:22:59;;;;;;;;;;;;;;;16.65;83.13;100753.03;5038768;28;1645;-86
2022/08/02 00:25:24;;;;;;;;;;;;;;;16.49;83.01;100749.81;5030980;28;1916;-85
2022/08/02 00:27:50;;;;;;;;;;;;;;;16.49;83.33;100752.59;5004502;28;1998;-85
2022/08/02 00:30:15;;;;;;;;;;;;;;;16.51;83.24;100761.34;5003506;28;1683;-85
2022/08/02 00:32:40;;;;;;;;;;;;;;;16.56;83.41;100761.25;5011599;28;1788;-85
2022/08/02 00:35:05;;;;;;;;;;;;;;;16.50;83.48;100759.72;5016343;28;1874;-85
2022/08/02 00:37:30;;;;;;;;;;;;;;;16.50;83.54;100761.69;5019394;28;1942;-85
2022/08/02 00:39:56;;;;;;;;;;;;;;;16.30;83.88;100757.47;5000613;28;1592;-84
2022/08/02 00:42:21;;;;;;;;;;;;;;;16.28;84.27;100768.81;4996232;28;1520;-84
2022/08/02 00:44:46;;;;;;;;;;;;;;;16.25;84.35;100772.19;5001806;28;1700;-84
2022/08/02 00:47:11;;;;;;;;;;;;;;;16.00;84.88;100781.06;4998721;28;2020;-84
2022/08/02 00:49:36;;;;;;;;;;;;;;;16.19;85.00;100772.63;5002223;28;1383;-84
2022/08/02 00:52:02;;;;;;;;;;;;;;;16.27;84.91;100782.94;4999869;28;1769;-83
2022/08/02 00:54:27;;;;;;;;;;;;;;;16.33;84.44;100784.47;4998445;28;1603;-84
2022/08/02 00:56:52;;;;;;;;;;;;;;;16.23;83.67;100781.94;5002948;28;1940;-84
2022/08/02 00:59:18;;;;;;;;;;;;;;;16.28;83.80;100788.16;5030949;28;1878;-84
2022/08/02 01:01:43;;;;;;;;;;;;;;;16.28;84.26;100777.09;5005845;28;1387;-84
2022/08/02 01:04:09;;;;;;;;;;;;;;;16.20;84.66;100780.59;5010594;28;2011;-84
2022/08/02 01:06:35;;;;;;;;;;;;;;;16.15;84.62;100780.72;5010668;28;1883;-84
2022/08/02 01:09:02;;;;;;;;;;;;;;;16.12;85.07;100783.28;5032434;28;1369;-84
2022/08/02 01:11:28;;;;;;;;;;;;;;;16.00;84.64;100775.53;4995394;28;1780;-83
2022/08/02 01:13:55;;;;;;;;;;;;;;;16.09;84.64;100781.97;5004193;28;1629;-83
2022/08/02 01:16:24;;;;;;;;;;;;;;;16.04;84.29;100773.78;5004611;28;1331;-83
2022/08/02 01:18:52;;;;;;;;;;;;;;;15.93;84.78;100775.13;5004510;28;1958;-83
2022/08/02 01:21:28;;;;;;;;;;;;;;;15.96;84.79;100773.72;5007138;28;1627;-83
2022/08/02 01:24:13;;;;;;;;;;;;;;;16.03;84.40;100774.91;5001656;28;1502;-83
2022/08/02 01:26:38;;;;;;;;;;;;;;;15.98;84.29;100764.00;5003183;28;1354;-83
2022/08/02 01:29:22;;;;;;;;;;;;;;;15.85;84.75;100762.88;4999598;28;1659;-84
2022/08/02 01:32:06;;;;;;;;;;;;;;;15.95;84.61;100761.84;5010505;28;1599;-84
2022/08/02 01:34:50;;;;;;;;;;;;;;;15.85;84.25;100773.13;4997978;28;1536;-84
2022/08/02 01:37:28;;;;;;;;;;;;;;;15.61;85.05;100769.75;4993484;28;1894;-84
2022/08/02 01:39:56;;;;;;;;;;;;;;;15.61;85.47;100773.34;4997126;28;1943;-84
2022/08/02 01:42:23;;;;;;;;;;;;;;;15.85;84.54;100767.59;5002707;28;1544;-83
2022/08/02 01:44:49;;;;;;;;;;;;;;;15.74;84.56;100766.16;4995402;28;1545;-84
2022/08/02 01:47:17;;;;;;;;;;;;;;;15.77;84.83;100760.84;4991879;28;1724;-84
2022/08/02 01:49:45;;;;;;;;;;;;;;;15.78;84.76;100768.00;4999548;28;1680;-84
2022/08/02 01:52:24;;;;;;;;;;;;;;;15.69;85.22;100771.81;5001113;28;1552;-83
2022/08/02 01:55:01;;;;;;;;;;;;;;;15.68;85.28;100775.69;5002019;28;1593;-84
2022/08/02 01:57:29;;;;;;;;;;;;;;;15.72;85.89;100769.25;4992349;28;1916;-83
2022/08/02 01:59:56;;;;;;;;;;;;;;;15.77;86.10;100771.06;5000781;28;1607;-84
2022/08/02 02:02:22;;;;;;;;;;;;;;;15.76;85.43;100773.03;5002446;28;1714;-84
2022/08/02 02:04:48;;;;;;;;;;;;;;;15.77;85.55;100768.31;4993466;28;1400;-84
2022/08/02 02:07:15;;;;;;;;;;;;;;;15.65;85.92;100771.59;5003442;28;1591;-84
2022/08/02 02:09:41;;;;;;;;;;;;;;;15.72;86.32;100780.28;5003323;28;1975;-84
2022/08/02 02:12:08;;;;;;;;;;;;;;;15.68;85.98;100775.69;4998344;28;1669;-84
2022/08/02 02:14:33;;;;;;;;;;;;;;;15.73;86.54;100770.06;5004398;28;1465;-84
2022/08/02 02:16:59;;;;;;;;;;;;;;;15.71;86.81;100777.84;5003259;28;1656;-84
2022/08/02 02:19:25;;;;;;;;;;;;;;;15.76;87.15;100772.19;5000858;28;1899;-84
2022/08/02 02:21:50;;;;;;;;;;;;;;;15.51;87.90;100779.03;5009503;28;1328;-84
2022/08/02 02:24:16;;;;;;;;;;;;;;;15.54;89.07;100772.13;5003429;28;1678;-84
2022/08/02 02:26:42;;;;;;;;;;;;;;;15.51;90.48;100774.34;5003488;28;1542;-84
2022/08/02 02:29:08;;;;;;;;;;;;;;;15.59;90.09;100777.53;5002555;28;1627;-84
2022/08/02 02:31:35;;;;;;;;;;;;;;;15.55;90.27;100769.06;5002744;28;1543;-84
2022/08/02 02:34:02;;;;;;;;;;;;;;;15.66;91.93;100772.41;5002386;28;1355;-84
2022/08/02 02:36:28;;;;;;;;;;;;;;;15.58;91.26;100768.44;5002396;28;1386;-84
2022/08/02 02:38:56;;;;;;;;;;;;;;;15.60;93.03;100766.19;5001315;28;1871;-84
2022/08/02 02:41:22;;;;;;;;;;;;;;;15.66;92.23;100764.13;4998654;28;1616;-84
2022/08/02 02:43:48;;;;;;;;;;;;;;;15.70;90.86;100760.47;5002568;28;2072;-84
2022/08/02 02:46:15;;;;;;;;;;;;;;;15.65;90.85;100762.53;5006060;28;1799;-84
2022/08/02 02:48:40;;;;;;;;;;;;;;;15.60;91.77;100760.66;4998983;28;1509;-83
2022/08/02 02:51:07;;;;;;;;;;;;;;;15.62;92.79;100755.66;4999024;28;1569;-84
2022/08/02 02:53:33;;;;;;;;;;;;;;;15.62;92.40;100761.19;4997627;28;1676;-83
2022/08/02 02:55:59;;;;;;;;;;;;;;;15.41;93.06;100757.97;4997248;28;1727;-83
2022/08/02 02:58:25;;;;;;;;;;;;;;;15.41;92.87;100748.88;4998446;28;1906;-83
2022/08/02 03:03:34;;;;;;;;;;;;;;;15.57;92.80;100753.00;5000183;28;1821;-84
2022/08/02 03:05:59;;;;;;;;;;;;;;;15.64;93.54;100747.91;4997670;28;1746;-84
2022/08/02 03:08:24;;;;;;;;;;;;;;;15.62;92.29;100736.34;4996745;28;1514;-84
2022/08/02 03:10:49;;;;;;;;;;;;;;;15.52;91.91;100750.31;5003693;28;1742;-84
2022/08/02 03:13:16;;;;;;;;;;;;;;;15.46;92.52;100748.81;5003670;28;1687;-84
2022/08/02 03:15:41;;;;;;;;;;;;;;;15.49;92.28;100748.16;4995789;28;1930;-84
2022/08/02 03:18:07;;;;;;;;;;;;;;;15.47;92.64;100753.19;5002353;28;1894;-85
2022/08/02 03:20:32;;;;;;;;;;;;;;;15.52;93.72;100739.28;4999138;28;1711;-84
2022/08/02 03:22:57;;;;;;;;;;;;;;;15.54;94.02;100750.06;4998190;28;1742;-84
2022/08/02 03:25:23;;;;;;;;;;;;;;;15.44;92.98;100740.00;4998855;28;1494;-84
2022/08/02 03:27:48;;;;;;;;;;;;;;;15.43;93.79;100743.88;4999277;28;1653;-84
2022/08/02 03:30:13;;;;;;;;;;;;;;;15.42;93.28;100737.56;5001721;28;1162;-84
2022/08/02 03:32:40;;;;;;;;;;;;;;;15.35;93.54;100744.59;4999506;28;1337;-84
2022/08/02 03:35:06;;;;;;;;;;;;;;;15.43;94.41;100744.72;4996147;28;1261;-84
2022/08/02 03:37:32;;;;;;;;;;;;;;;15.33;94.83;100742.16;4998820;28;1930;-84
2022/08/02 03:39:58;;;;;;;;;;;;;;;15.43;94.47;100741.13;4999214;28;1184;-84
2022/08/02 03:42:25;;;;;;;;;;;;;;;15.44;93.02;100740.81;4998337;28;1306;-83
2022/08/02 03:44:50;;;;;;;;;;;;;;;15.43;93.26;100733.66;4997285;28;1686;-84
2022/08/02 03:47:16;;;;;;;;;;;;;;;15.41;94.57;100733.16;4998407;28;1358;-83
2022/08/02 03:49:42;;;;;;;;;;;;;;;15.25;94.99;100726.31;4995671;28;1682;-84
2022/08/02 03:52:07;;;;;;;;;;;;;;;15.24;95.93;100737.63;4998362;28;1577;-84
2022/08/02 03:54:32;;;;;;;;;;;;;;;15.20;95.68;100740.22;4993687;28;1758;-84
2022/08/02 03:56:57;;;;;;;;;;;;;;;15.28;96.79;100731.22;5000129;28;1351;-83
2022/08/02 03:59:22;;;;;;;;;;;;;;;15.31;95.41;100736.09;4997541;28;1894;-83
2022/08/02 04:01:48;;;;;;;;;;;;;;;15.37;96.17;100736.84;4994427;28;1642;-83
2022/08/02 04:04:13;;;;;;;;;;;;;;;15.32;95.44;100751.53;4996950;28;2081;-83
2022/08/02 04:06:38;;;;;;;;;;;;;;;15.33;95.47;100744.91;4999286;28;1572;-83
2022/08/02 04:09:03;;;;;;;;;;;;;;;15.32;94.87;100756.22;4995385;28;1526;-83
2022/08/02 04:11:31;;;;;;;;;;;;;;;15.22;95.37;100754.53;4998173;28;1690;-83
2022/08/02 04:14:01;;;;;;;;;;;;;;;15.27;95.57;100762.69;4996758;28;1631;-83
2022/08/02 04:16:38;;;;;;;;;;;;;;;15.35;95.39;100770.25;4996482;28;1389;-83
2022/08/02 04:19:06;;;;;;;;;;;;;;;15.22;95.51;100762.78;4986326;28;1886;-84
2022/08/02 04:21:32;;;;;;;;;;;;;;;15.24;96.26;100767.97;5026353;28;1205;-83
2022/08/02 04:23:59;;;;;;;;;;;;;;;15.27;96.65;100773.72;4991562;28;1391;-83
2022/08/02 04:26:25;;;;;;;;;;;;;;;15.34;96.73;100771.38;4992654;28;1596;-84
2022/08/02 04:28:50;;;;;;;;;;;;;;;15.34;94.83;100768.59;4991926;28;1679;-83
2022/08/02 04:31:16;;;;;;;;;;;;;;;15.38;95.82;100768.81;4993484;28;1158;-84
2022/08/02 04:33:41;;;;;;;;;;;;;;;15.43;95.22;100757.69;4994271;28;1783;-84
2022/08/02 04:36:07;;;;;;;;;;;;;;;15.49;95.09;100761.97;4995144;28;1327;-84
2022/08/02 04:38:32;;;;;;;;;;;;;;;15.39;94.33;100768.53;4994647;28;1949;-84
2022/08/02 04:40:57;;;;;;;;;;;;;;;15.41;94.82;100762.69;4996456;28;1557;-84
2022/08/02 04:43:22;;;;;;;;;;;;;;;15.52;94.82;100764.13;4996015;28;1660;-84
2022/08/02 04:45:52;;;;;;;;;;;;;;;15.59;94.42;100766.50;4996187;28;1304;-84
2022/08/02 04:48:17;;;;;;;;;;;;;;;15.64;93.59;100760.88;4997018;28;1326;-84
2022/08/02 04:50:42;;;;;;;;;;;;;;;15.66;93.31;100764.13;4998903;28;1368;-83
2022/08/02 04:53:07;;;;;;;;;;;;;;;15.66;93.09;100770.47;5024900;28;2014;-83
2022/08/02 04:55:32;;;;;;;;;;;;;;;15.57;93.05;100775.06;5012279;28;1778;-84
2022/08/02 04:57:58;;;;;;;;;;;;;;;15.52;93.83;100767.69;4998925;28;1898;-84
2022/08/02 05:00:23;;;;;;;;;;;;;;;15.57;93.94;100768.75;4988485;28;1655;-84
2022/08/02 05:02:49;;;;;;;;;;;;;;;15.55;93.51;100769.06;4999519;28;1235;-84
2022/08/02 05:05:14;;;;;;;;;;;;;;;15.40;93.75;100777.59;4992575;28;1640;-84
2022/08/02 05:07:39;;;;;;;;;;;;;;;15.23;94.59;100769.91;4997384;28;1707;-83
2022/08/02 05:10:04;;;;;;;;;;;;;;;15.33;95.21;100778.00;4998542;28;1687;-83
2022/08/02 05:12:30;;;;;;;;;;;;;;;15.36;95.41;100773.81;5000145;28;1604;-83
2022/08/02 05:14:55;;;;;;;;;;;;;;;15.42;95.57;100778.94;5001394;28;2088;-83
2022/08/02 05:17:20;;;;;;;;;;;;;;;15.47;95.03;100778.84;5007759;28;1879;-82
2022/08/02 05:19:45;;;;;;;;;;;;;;;15.59;94.76;100772.00;5005220;28;2008;-84
2022/08/02 05:22:10;;;;;;;;;;;;;;;15.67;94.67;100774.88;4999777;28;1608;-83
2022/08/02 05:24:35;;;;;;;;;;;;;;;15.64;94.40;100769.16;5002912;28;1761;-83
2022/08/02 05:27:01;;;;;;;;;;;;;;;15.66;94.77;100777.94;5000089;28;1751;-83
2022/08/02 05:29:26;;;;;;;;;;;;;;;15.68;94.49;100783.97;4998563;28;1439;-83
2022/08/02 05:31:51;;;;;;;;;;;;;;;15.70;94.53;100771.50;4998758;28;1751;-83
2022/08/02 05:34:16;;;;;;;;;;;;;;;15.72;94.16;100779.47;5001253;28;1469;-83
2022/08/02 05:36:41;;;;;;;;;;;;;;;15.69;94.66;100780.91;5000452;28;1462;-83
2022/08/02 05:39:07;;;;;;;;;;;;;;;15.74;94.32;100771.69;4998547;28;1942;-83
2022/08/02 05:41:32;;;;;;;;;;;;;;;15.76;94.35;100772.19;5001284;28;1569;-83
2022/08/02 05:43:57;;;;;;;;;;;;;;;15.77;93.97;100782.13;5026801;28;1657;-84
2022/08/02 05:46:23;;;;;;;;;;;;;;;15.72;93.85;100777.53;5002899;28;2034;-84
2022/08/02 05:48:48;;;;;;;;;;;;;;;15.74;93.94;100780.78;4996634;28;1680;-83
2022/08/02 05:51:25;;;;;;;;;;;;;;;15.73;93.81;100779.19;4998705;28;2084;-84
2022/08/02 05:53:54;;;;;;;;;;;;;;;15.82;93.91;100779.28;4995196;28;1568;-83
2022/08/02 05:56:19;;;;;;;;;;;;;;;15.88;94.00;100783.53;4999872;28;1287;-84
2022/08/02 05:58:49;;;;;;;;;;;;;;;15.86;94.02;100778.31;5026977;28;1893;-84
2022/08/02 06:01:17;;;;;;;;;;;;;;;15.92;93.94;100780.97;4993881;28;1398;-84
2022/08/02 06:03:50;;;;;;;;;;;;;;;15.91;93.37;100780.16;4996099;28;1913;-85
2022/08/02 06:06:21;;;;;;;;;;;;;;;15.98;93.21;100788.03;4992566;28;1544;-84
2022/08/02 06:08:49;;;;;;;;;;;;;;;16.00;93.51;100788.50;4992031;28;1660;-84
2022/08/02 06:11:22;;;;;;;;;;;;;;;15.98;94.20;100785.28;5026255;28;1410;-84
2022/08/02 06:13:48;;;;;;;;;;;;;;;15.94;94.31;100787.81;4989144;28;1608;-83
2022/08/02 06:16:13;;;;;;;;;;;;;;;15.96;94.29;100791.09;4995694;28;1320;-84
2022/08/02 06:18:42;;;;;;;;;;;;;;;15.96;93.87;100799.38;4994505;28;2044;-85
2022/08/02 06:21:10;;;;;;;;;;;;;;;15.98;94.27;100799.06;4990226;28;1741;-84
2022/08/02 06:23:39;;;;;;;;;;;;;;;16.03;94.44;100801.72;4992670;28;1238;-84
2022/08/02 06:26:05;;;;;;;;;;;;;;;16.13;94.11;100804.25;4994600;28;1648;-84
2022/08/02 06:28:30;;;;;;;;;;;;;;;16.13;93.79;100799.56;4997650;28;1747;-84
2022/08/02 06:30:56;;;;;;;;;;;;;;;16.16;93.80;100804.44;4996388;28;1384;-84
2022/08/02 06:33:22;;;;;;;;;;;;;;;16.27;94.35;100802.28;4995841;28;1517;-84
2022/08/02 06:35:52;;;;;;;;;;;;;;;16.32;94.43;100801.34;4996855;28;1266;-85
2022/08/02 06:38:20;;;;;;;;;;;;;;;16.43;93.78;100795.25;5001287;28;1900;-85
2022/08/02 06:40:50;;;;;;;;;;;;;;;16.45;93.75;100800.47;4993726;28;1699;-84
2022/08/02 06:43:27;;;;;;;;;;;;;;;16.41;94.25;100799.47;4986584;28;1276;-84
2022/08/02 06:45:52;;;;;;;;;;;;;;;16.40;94.55;100795.09;4993945;28;1608;-84
2022/08/02 06:48:17;;;;;;;;;;;;;;;16.36;94.57;100791.28;5012810;28;1117;-84
2022/08/02 06:50:43;;;;;;;;;;;;;;;16.31;94.44;100796.94;4994879;28;1611;-84
2022/08/02 06:53:09;;;;;;;;;;;;;;;16.28;94.59;100796.44;4995174;28;1465;-85
2022/08/02 06:55:34;;;;;;;;;;;;;;;16.26;94.50;100800.63;4992851;28;1762;-85
2022/08/02 06:57:59;;;;;;;;;;;;;;;16.28;94.61;100799.19;4988975;28;1890;-85
2022/08/02 07:00:25;;;;;;;;;;;;;;;16.31;93.99;100791.44;4990535;28;1659;-84
2022/08/02 07:02:50;;;;;;;;;;;;;;;16.32;93.66;100793.06;5022638;28;1673;-85
2022/08/02 07:05:16;;;;;;;;;;;;;;;16.40;93.92;100792.31;4993969;28;2094;-85
2022/08/02 07:07:41;;;;;;;;;;;;;;;16.38;93.94;100800.91;4990188;28;2079;-86
2022/08/02 07:10:06;;;;;;;;;;;;;;;16.42;94.56;100790.03;4994799;28;1020;-85
2022/08/02 07:12:32;;;;;;;;;;;;;;;16.46;94.08;100791.06;4994405;28;1168;-85
2022/08/02 07:14:59;;;;;;;;;;;;;;;16.51;94.09;100793.69;4994366;28;2083;-86
2022/08/02 07:17:24;;;;;;;;;;;;;;;16.53;94.59;100778.44;4989595;28;1902;-84
2022/08/02 07:19:49;;;;;;;;;;;;;;;16.60;94.61;100784.34;4993649;28;1692;-85
2022/08/02 07:22:17;;;;;;;;;;;;;;;16.62;95.26;100779.34;5024001;28;1618;-85
2022/08/02 07:24:42;;;;;;;;;;;;;;;16.59;94.91;100762.53;4990917;28;2227;-85
2022/08/02 07:27:07;;;;;;;;;;;;;;;16.66;95.24;100762.16;4993799;28;1809;-85
2022/08/02 07:29:32;;;;;;;;;;;;;;;16.73;95.69;100760.56;4996717;28;1556;-85
2022/08/02 07:31:57;;;;;;;;;;;;;;;16.79;95.43;100764.84;5000125;28;1640;-85
2022/08/02 07:34:23;;;;;;;;;;;;;;;16.84;94.70;100750.88;4996546;28;1576;-85
2022/08/02 07:36:48;;;;;;;;;;;;;;;16.88;95.47;100745.53;4987276;28;1849;-85
2022/08/02 07:39:13;;;;;;;;;;;;;;;16.92;95.23;100746.56;4999472;28;1918;-85
2022/08/02 07:41:38;;;;;;;;;;;;;;;16.96;95.04;100742.81;5000150;28;1634;-86
2022/08/02 07:44:04;;;;;;;;;;;;;;;17.01;95.82;100742.69;5005270;28;1856;-85
2022/08/02 07:46:29;;;;;;;;;;;;;;;17.06;95.08;100735.38;4995696;28;1404;-85
2022/08/02 07:48:54;;;;;;;;;;;;;;;17.09;95.62;100729.22;4998198;28;1556;-85
2022/08/02 07:51:20;;;;;;;;;;;;;;;17.12;95.36;100721.09;4997715;28;971;-85
2022/08/02 07:53:45;;;;;;;;;;;;;;;17.17;95.14;100718.22;4999649;28;1043;-85
2022/08/02 07:56:10;;;;;;;;;;;;;;;17.24;95.53;100726.84;4998134;28;1698;-85
2022/08/02 07:58:36;;;;;;;;;;;;;;;17.27;96.10;100731.72;4984225;28;1894;-87
2022/08/02 08:01:01;;;;;;;;;;;;;;;17.26;93.99;100723.78;4973490;28;1283;-87
2022/08/02 08:03:26;;;;;;;;;;;;;;;17.28;94.45;100724.25;4980155;28;1344;-87
2022/08/02 08:05:53;;;;;;;;;;;;;;;17.35;95.08;100735.69;4993606;28;1291;-87
2022/08/02 08:08:18;;;;;;;;;;;;;;;17.39;94.97;100731.94;4995242;28;1242;-87
2022/08/02 08:10:43;;;;;;;;;;;;;;;17.40;95.05;100733.59;4996990;28;1212;-87
2022/08/02 08:13:09;;;;;;;;;;;;;;;17.47;95.34;100744.19;4997944;28;1622;-88
2022/08/02 08:15:34;;;;;;;;;;;;;;;17.57;95.56;100730.06;4997905;28;1232;-87
2022/08/02 08:17:59;;;;;;;;;;;;;;;17.60;94.85;100728.59;4996483;28;1906;-87
2022/08/02 08:20:24;;;;;;;;;;;;;;;17.63;94.50;100728.78;4986427;28;1655;-87
2022/08/02 08:22:49;;;;;;;;;;;;;;;17.73;92.30;100725.72;4991206;28;1300;-87
2022/08/02 08:25:15;;;;;;;;;;;;;;;17.75;93.03;100722.63;4999984;28;1440;-87
2022/08/02 08:27:47;;;;;;;;;;;;;;;17.80;93.45;100716.94;4996078;28;1314;-87
2022/08/02 08:30:13;;;;;;;;;;;;;;;17.83;92.95;100721.84;4997359;28;849;-87
2022/08/02 08:32:38;;;;;;;;;;;;;;;17.95;94.28;100723.97;4997197;28;1021;-87
2022/08/02 08:35:05;;;;;;;;;;;;;;;18.00;92.63;100721.03;4995081;28;1367;-87
2022/08/02 08:37:34;;;;;;;;;;;;;;;18.06;92.42;100722.50;4995933;28;1952;-87
2022/08/02 08:39:59;;;;;;;;;;;;;;;18.11;92.19;100727.91;4996014;28;1252;-87
2022/08/02 08:42:25;;;;;;;;;;;;;;;18.22;93.38;100728.38;4995957;28;823;-86
2022/08/02 08:44:50;;;;;;;;;;;;;;;18.24;90.53;100731.63;4982680;28;1200;-86
2022/08/02 08:47:16;;;;;;;;;;;;;;;18.26;92.10;100726.59;4989773;28;1663;-87
2022/08/02 08:49:44;;;;;;;;;;;;;;;18.31;92.45;100732.78;4995658;28;1536;-87
2022/08/02 08:52:10;;;;;;;;;;;;;;;18.38;92.37;100721.19;4998271;28;1226;-85
2022/08/02 08:54:47;;;;;;;;;;;;;;;18.48;92.49;100721.66;4998331;28;1630;-86
2022/08/02 08:57:41;;;;;;;;;;;;;;;18.57;91.25;100712.56;4993683;28;1415;-87
2022/08/02 09:00:15;;;;;;;;;;;;;;;18.62;90.78;100704.91;4994498;28;1748;-87
2022/08/02 09:02:42;;;;;;;;;;;;;;;18.76;91.28;100708.28;4995863;28;1490;-86
2022/08/02 09:05:11;;;;;;;;;;;;;;;18.81;90.37;100705.31;4979452;28;1480;-86
2022/08/02 09:07:58;;;;;;;;;;;;;;;18.84;89.62;100706.63;4996083;28;1862;-87
2022/08/02 09:10:47;;;;;;;;;;;;;;;18.75;91.12;100705.84;4996275;28;1091;-86
2022/08/02 09:13:57;;;;;;;;;;;;;;;18.70;90.76;100692.16;5001363;28;1218;-87
2022/08/02 09:16:42;;;;;;;;;;;;;;;18.51;91.11;100692.47;5012223;28;1150;-87
2022/08/02 09:19:24;;;;;;;;;;;;;;;18.58;91.30;100692.00;5008159;28;1958;-87
2022/08/02 09:22:03;;;;;;;;;;;;;;;18.64;89.06;100699.81;5006995;28;1629;-86
2022/08/02 09:24:51;;;;;;;;;;;;;;;18.69;88.14;100716.28;5004887;28;1558;-87
2022/08/02 09:27:34;;;;;;;;;;;;;;;18.81;88.09;100710.88;4998017;28;1213;-86
2022/08/02 09:30:01;;;;;;;;;;;;;;;18.86;88.23;100698.78;4996619;28;1274;-87
2022/08/02 09:32:32;;;;;;;;;;;;;;;18.77;88.91;100700.78;4995133;28;1746;-86
2022/08/02 09:34:58;;;;;;;;;;;;;;;18.82;87.34;100700.59;4995593;28;1532;-86
2022/08/02 09:37:26;;;;;;;;;;;;;;;18.87;86.48;100695.69;4996280;28;1890;-87
2022/08/02 09:39:54;;;;;;;;;;;;;;;18.98;85.32;100690.56;4996370;28;1361;-86
2022/08/02 09:42:34;;;;;;;;;;;;;;;18.98;85.86;100681.44;4995066;28;1456;-86
2022/08/02 09:45:04;;;;;;;;;;;;;;;18.99;83.08;100697.75;4997939;28;853;-87
2022/08/02 09:47:32;;;;;;;;;;;;;;;19.10;74.67;100695.44;5012047;28;1367;-87
2022/08/02 09:50:22;;;;;;;;;;;;;;;19.10;75.34;100692.66;5028416;28;880;-87
2022/08/02 09:52:53;;;;;;;;;;;;;;;19.13;76.94;100690.06;4981043;28;1448;-87
2022/08/02 09:55:34;;;;;;;;;;;;;;;;;;;;;
2022/08/02 09:58:17;;;;;;;;;;;;;;;19.26;78.33;100683.44;4996402;28;1986;-87
2022/08/02 10:00:53;;;;;;;;;;;;;;;19.28;75.11;100681.16;4999686;28;1601;-87
2022/08/02 10:03:18;;;;;;;;;;;;;;;19.37;77.27;100674.75;4996541;28;1058;-87
2022/08/02 10:05:54;;;;;;;;;;;;;;;19.37;78.66;100685.84;4996948;28;1511;-87
2022/08/02 10:08:22;;;;;;;;;;;;;;;19.54;76.21;100677.44;4997081;28;1703;-86
2022/08/02 10:10:59;;;;;;;;;;;;;;;19.47;78.30;100674.38;4987232;28;1714;-86
2022/08/02 10:13:24;;;;;;;;;;;;;;;19.57;74.29;100671.19;4990058;28;1421;-86
2022/08/02 10:15:50;;;;;;;;;;;;;;;19.56;74.42;100683.50;4995739;28;1532;-87
2022/08/02 10:18:15;;;;;;;;;;;;;;;19.59;74.16;100671.69;4995481;28;1898;-87
2022/08/02 10:20:43;;;;;;;;;;;;;;;19.67;75.39;100673.59;4996544;28;841;-87
2022/08/02 10:23:11;;;;;;;;;;;;;;;19.68;76.52;100664.13;4984420;28;1480;-88
2022/08/02 10:25:37;;;;;;;;;;;;;;;19.73;71.67;100655.59;4994587;28;1472;-87
2022/08/02 10:28:12;;;;;;;;;;;;;;;19.81;74.38;100657.50;4996751;28;1415;-87
2022/08/02 10:30:39;;;;;;;;;;;;;;;19.87;73.77;100656.13;4995033;28;1329;-86
2022/08/02 10:33:06;;;;;;;;;;;;;;;19.94;73.34;100650.03;4995676;28;1253;-87
2022/08/02 10:35:32;;;;;;;;;;;;;;;20.01;73.72;100645.53;4995815;28;1212;-87
2022/08/02 10:38:00;;;;;;;;;;;;;;;20.03;73.21;100648.00;4997267;28;1901;-87
2022/08/02 10:40:40;;;;;;;;;;;;;;;20.11;72.41;100643.50;4998422;28;1328;-88
2022/08/02 10:43:06;;;;;;;;;;;;;;;20.23;69.19;100647.16;5002763;28;1546;-86
2022/08/02 10:45:31;;;;;;;;;;;;;;;20.22;69.85;100633.59;4997400;28;1567;-88
2022/08/02 10:47:57;;;;;;;;;;;;;;;20.39;68.58;100627.91;4994208;28;1804;-87
2022/08/02 10:50:41;;;;;;;;;;;;;;;20.50;68.87;100622.72;5004721;28;1584;-87
2022/08/02 10:53:25;;;;;;;;;;;;;;;20.47;72.19;100629.78;4999059;28;1412;-87
2022/08/02 10:55:50;;;;;;;;;;;;;;;20.49;72.72;100630.25;5001921;28;1333;-88
2022/08/02 10:58:20;;;;;;;;;;;;;;;20.67;68.55;100628.88;4990554;28;1953;-87
2022/08/02 11:00:45;;;;;;;;;;;;;;;20.66;70.80;100629.25;4993770;28;1382;-87
2022/08/02 11:03:33;;;;;;;;;;;;;;;20.59;71.83;100627.00;4994299;28;1295;-87
2022/08/02 11:06:09;;;;;;;;;;;;;;;20.81;72.63;100616.63;4994504;28;1271;-88
2022/08/02 11:08:34;;;;;;;;;;;;;;;20.76;72.38;100621.22;4993573;28;1236;-88
2022/08/02 11:11:00;;;;;;;;;;;;;;;20.90;70.10;100622.88;4991227;28;1719;-88
2022/08/02 11:13:26;;;;;;;;;;;;;;;21.13;68.69;100636.00;4991937;28;1608;-88
2022/08/02 11:15:56;;;;;;;;;;;;;;;21.02;68.15;100634.81;4991344;28;1469;-87
2022/08/02 11:18:22;;;;;;;;;;;;;;;21.20;67.06;100624.31;4994531;28;1890;-87
2022/08/02 11:21:07;;;;;;;;;;;;;;;21.08;66.57;100638.19;5010757;28;1802;-87
2022/08/02 11:23:34;;;;;;;;;;;;;;;21.20;67.83;100620.69;5012234;28;1356;-87
2022/08/02 11:25:59;;;;;;;;;;;;;;;21.25;66.33;100610.16;4999290;28;1388;-88
2022/08/02 11:28:25;;;;;;;;;;;;;;;21.22;66.83;100621.16;4995409;28;1327;-88
2022/08/02 11:30:57;;;;;;;;;;;;;;;21.15;68.55;100628.09;4993449;28;1211;-87
2022/08/02 11:33:28;;;;;;;;;;;;;;;21.10;72.25;100636.69;4994306;28;861;-87
2022/08/02 11:35:59;;;;;;;;;;;;;;;21.52;65.61;100620.53;4998657;28;1671;-86
2022/08/02 11:38:24;;;;;;;;;;;;;;;21.61;67.21;100617.63;5005024;28;1871;-88
2022/08/02 11:40:49;;;;;;;;;;;;;;;21.60;64.95;100624.38;5001154;28;1373;-87
2022/08/02 11:43:16;;;;;;;;;;;;;;;21.52;64.56;100619.75;4998299;28;1268;-87
2022/08/02 11:45:41;;;;;;;;;;;;;;;21.43;66.31;100622.69;4998078;28;1192;-87
2022/08/02 11:48:06;;;;;;;;;;;;;;;21.67;64.77;100624.59;4998058;28;1298;-87
2022/08/02 11:50:31;;;;;;;;;;;;;;;21.89;64.30;100618.47;4996187;28;1356;-88
2022/08/02 11:52:56;;;;;;;;;;;;;;;21.74;66.22;100613.66;4991416;28;1505;-88
2022/08/02 11:55:25;;;;;;;;;;;;;;;21.78;63.71;100620.13;4997334;28;1063;-87
2022/08/02 11:57:56;;;;;;;;;;;;;;;21.84;66.55;100620.72;4997861;28;1976;-87
2022/08/02 12:00:21;;;;;;;;;;;;;;;21.93;64.30;100615.00;4999579;28;904;-87
2022/08/02 12:02:47;;;;;;;;;;;;;;;21.85;63.89;100603.66;4995740;28;1308;-87
2022/08/02 12:05:15;;;;;;;;;;;;;;;22.03;63.38;100598.59;4997924;28;1294;-87
2022/08/02 12:07:41;;;;;;;;;;;;;;;22.00;66.11;100599.31;4997104;28;1549;-87
2022/08/02 12:10:07;;;;;;;;;;;;;;;22.05;63.44;100604.63;4996610;28;1355;-87
2022/08/02 12:12:32;;;;;;;;;;;;;;;22.02;64.13;100597.00;4997208;28;1204;-87
2022/08/02 12:14:57;;;;;;;;;;;;;;;22.17;67.12;100601.78;5029950;28;1344;-87
2022/08/02 12:20:11;;;;;;;;;;;;;;;22.36;64.86;100587.16;5001976;28;1259;-87
2022/08/02 12:22:37;;;;;;;;;;;;;;;22.42;66.00;100596.88;4997135;28;1340;-87
2022/08/02 12:25:22;;;;;;;;;;;;;;;22.36;64.82;100589.16;4997413;28;1215;-87
2022/08/02 12:27:48;;;;;;;;;;;;;;;22.67;63.17;100594.75;4997245;28;1272;-86
2022/08/02 12:30:14;;;;;;;;;;;;;;;22.57;66.01;100593.28;4997917;28;1283;-87
2022/08/02 12:32:40;;;;;;;;;;;;;;;22.52;65.85;100584.41;4998006;28;1232;-87
2022/08/02 12:35:09;;;;;;;;;;;;;;;22.54;67.29;100579.28;4995571;28;1532;-87
2022/08/02 12:37:36;;;;;;;;;;;;;;;22.89;60.56;100587.75;4997797;28;1967;-87
2022/08/02 12:40:17;;;;;;;;;;;;;;;22.90;62.77;100594.94;5000490;28;1377;-87
2022/08/02 12:42:47;;;;;;;;;;;;;;;22.97;61.59;100589.53;4986382;28;1712;-88
2022/08/02 12:45:12;;;;;;;;;;;;;;;23.02;60.89;100581.72;4997267;28;1474;-87
2022/08/02 12:47:44;;;;;;;;;;;;;;;23.08;61.93;100589.78;4996684;28;1611;-87
2022/08/02 12:50:20;;;;;;;;;;;;;;;22.99;63.11;100592.78;4995565;28;1508;-87
2022/08/02 12:52:46;;;;;;;;;;;;;;;23.23;59.28;100583.38;4976624;28;1327;-87
2022/08/02 12:55:19;;;;;;;;;;;;;;;23.11;61.31;100583.50;4990090;28;1580;-87
2022/08/02 12:57:51;;;;;;;;;;;;;;;23.10;62.11;100584.66;5004484;28;1890;-87